Time;durP1;ratioP1;P1;durP2;ratioP2;P2;SDS_P1;SDS_P2;PMS_P1;PMS_P2;Temp;Humidity;BMP_temperature;BMP_pressure;BME280_temperature;BME280_humidity;BME280_pressure;Samples;Min_cycle;Max_cycle;Signal;HPM_P1;HPM_P2
2021/12/06 00:02:25;;;;;;;3.22;1.65;;;;;;;3.39;100.00;99770.75;5024121;28;20087;-54
2021/12/06 00:05:28;;;;;;;5.50;2.58;;;;;;;3.47;100.00;99765.84;5028768;28;20206;-54
2021/12/06 00:08:31;;;;;;;4.60;2.72;;;;;;;3.56;100.00;99779.78;5000663;28;20136;-54
2021/12/06 00:11:35;;;;;;;6.25;2.63;;;;;;;3.64;100.00;99778.41;5020844;28;20058;-53
2021/12/06 00:14:40;;;;;;;7.47;2.42;;;;;;;3.67;100.00;99778.31;5026278;28;20052;-54
2021/12/06 00:17:43;;;;;;;1.85;1.75;;;;;;;3.75;100.00;99776.16;5008682;28;20130;-53
2021/12/06 00:20:47;;;;;;;5.43;2.00;;;;;;;3.76;100.00;99764.72;5022428;28;20105;-54
2021/12/06 00:23:50;;;;;;;1.15;0.80;;;;;;;3.74;100.00;99764.41;5015161;28;20406;-54
2021/12/06 00:26:53;;;;;;;13.32;3.05;;;;;;;3.76;100.00;99758.44;5013541;28;20077;-55
2021/12/06 00:29:56;;;;;;;1.98;1.13;;;;;;;3.70;100.00;99735.38;5008024;28;20107;-54
2021/12/06 00:32:59;;;;;;;8.48;1.33;;;;;;;3.64;100.00;99743.38;5025633;28;20056;-55
2021/12/06 00:36:05;;;;;;;3.60;1.80;;;;;;;3.60;100.00;99730.91;5018478;28;20064;-54
2021/12/06 00:39:13;;;;;;;1.02;0.98;;;;;;;3.56;100.00;99725.50;4997307;28;20413;-54
2021/12/06 00:42:19;;;;;;;1.67;1.50;;;;;;;3.63;100.00;99727.31;5001281;28;20504;-54
2021/12/06 00:45:23;;;;;;;6.03;1.85;;;;;;;3.64;100.00;99737.88;5045616;28;20399;-54
2021/12/06 00:48:26;;;;;;;5.40;1.52;;;;;;;3.65;100.00;99730.41;4980126;28;20552;-53
2021/12/06 00:51:29;;;;;;;2.25;2.05;;;;;;;3.63;100.00;99713.53;5010193;28;20072;-53
2021/12/06 00:54:35;;;;;;;3.80;2.00;;;;;;;3.70;100.00;99696.84;4992745;28;20079;-52
2021/12/06 00:57:39;;;;;;;7.88;2.05;;;;;;;3.65;100.00;99689.09;4984895;28;20187;-53
2021/12/06 01:00:46;;;;;;;2.40;1.90;;;;;;;3.73;100.00;99690.44;4993008;28;20096;-53
2021/12/06 01:03:50;;;;;;;1.75;1.58;;;;;;;3.79;100.00;99692.25;4989776;28;20064;-54
2021/12/06 01:06:53;;;;;;;1.52;1.42;;;;;;;3.82;100.00;99688.63;4985455;28;20084;-53
2021/12/06 01:09:55;;;;;;;2.65;1.38;;;;;;;3.76;100.00;99689.59;4998591;28;20212;-53
2021/12/06 01:12:59;;;;;;;11.75;2.25;;;;;;;3.81;100.00;99680.81;4958101;28;20057;-52
2021/12/06 01:16:03;;;;;;;2.95;1.90;;;;;;;3.78;100.00;99670.66;4971060;28;20544;-52
2021/12/06 01:19:06;;;;;;;3.20;1.65;;;;;;;3.74;100.00;99664.47;4955786;28;20123;-53
2021/12/06 01:25:03;;;;;;;2.88;1.13;;;;;;;3.79;100.00;99666.69;5051170;28;20492;-55
2021/12/06 01:41:20;;;;;;;6.20;2.42;;;;;;;3.56;100.00;99669.66;4935948;28;20319;-56
2021/12/06 01:44:29;;;;;;;3.42;3.00;;;;;;;3.55;100.00;99668.13;4950983;28;20058;-56
2021/12/06 01:47:36;;;;;;;3.00;2.15;;;;;;;3.45;100.00;99666.41;4944327;28;20455;-55
2021/12/06 01:50:40;;;;;;;3.72;2.30;;;;;;;3.46;100.00;99662.47;4950480;28;20188;-55
2021/12/06 01:53:43;;;;;;;4.60;2.60;;;;;;;3.43;100.00;99672.34;4959184;28;20077;-55
2021/12/06 01:56:48;;;;;;;10.70;2.88;;;;;;;3.40;100.00;99664.19;4977740;28;20200;-55
2021/12/06 01:59:53;;;;;;;10.35;2.25;;;;;;;3.42;100.00;99664.53;4948728;29;20795;-55
2021/12/06 02:02:57;;;;;;;10.30;2.72;;;;;;;3.49;100.00;99676.13;4949243;29;20134;-55
2021/12/06 02:06:00;;;;;;;12.38;3.38;;;;;;;3.48;100.00;99674.59;4946534;28;20054;-55
2021/12/06 02:09:06;;;;;;;8.25;3.05;;;;;;;3.47;100.00;99689.53;4945026;28;20190;-56
2021/12/06 02:12:11;;;;;;;1.17;1.17;;;;;;;3.40;100.00;99694.47;4955668;28;20105;-55
2021/12/06 02:15:32;;;;;;;4.60;2.40;;;;;;;3.33;100.00;99678.13;4996555;28;20087;-56
2021/12/06 02:18:44;;;;;;;5.50;3.15;;;;;;;3.28;100.00;99670.38;4968681;28;20125;-55
2021/12/06 02:21:46;;;;;;;2.75;1.83;;;;;;;3.28;100.00;99659.38;5114905;22;20120;-86
2021/12/06 02:24:52;;;;;;;0.98;0.98;;;;;;;3.34;100.00;99657.63;5066329;28;20047;-86
2021/12/06 02:27:55;;;;;;;2.75;1.65;;;;;;;3.42;100.00;99653.53;5069981;28;20048;-85
2021/12/06 02:30:59;;;;;;;25.50;2.63;;;;;;;3.41;100.00;99657.47;5061706;28;20039;-85
2021/12/06 02:34:02;;;;;;;4.22;1.60;;;;;;;3.38;100.00;99639.09;5073718;28;20101;-85
2021/12/06 02:37:07;;;;;;;13.45;1.38;;;;;;;3.33;100.00;99628.59;5055658;28;20044;-85
2021/12/06 02:40:16;;;;;;;10.63;1.95;;;;;;;3.27;100.00;99619.31;5065371;28;20095;-85
2021/12/06 02:43:19;;;;;;;3.13;1.17;;;;;;;3.28;100.00;99613.38;5035693;28;20438;-85
2021/12/06 02:46:23;;;;;;;4.75;2.47;;;;;;;3.30;100.00;99618.44;5036395;28;20049;-85
2021/12/06 02:49:26;;;;;;;1.58;1.48;;;;;;;3.31;100.00;99609.75;5046379;28;20064;-88
2021/12/06 02:52:29;;;;;;;4.07;2.00;;;;;;;3.36;100.00;99611.19;5036065;28;20041;-86
2021/12/06 02:55:36;;;;;;;1.90;1.15;;;;;;;3.37;100.00;99618.25;5035113;28;20096;-87
2021/12/06 03:01:46;;;;;;;1.55;1.45;;;;;;;3.37;100.00;99640.28;5033770;28;20501;-80
2021/12/06 03:04:49;;;;;;;6.97;2.42;;;;;;;3.37;100.00;99637.53;5042013;28;20068;-83
2021/12/06 03:07:57;;;;;;;2.80;2.33;;;;;;;3.30;100.00;99632.97;5053330;28;20136;-80
2021/12/06 03:11:01;;;;;;;5.97;2.20;;;;;;;3.21;100.00;99626.50;5055188;28;20099;-86
2021/12/06 03:14:07;;;;;;;6.40;2.28;;;;;;;3.18;100.00;99635.66;5053888;28;20048;-82
2021/12/06 03:17:14;;;;;;;3.55;3.08;;;;;;;3.15;100.00;99633.75;5063444;28;20051;-88
2021/12/06 03:20:17;;;;;;;2.75;1.98;;;;;;;3.18;100.00;99627.41;5055280;28;20044;-89
2021/12/06 03:23:19;;;;;;;1.75;0.95;;;;;;;3.17;100.00;99617.59;5055513;28;20060;-89
2021/12/06 03:26:23;;;;;;;1.90;1.45;;;;;;;3.29;100.00;99616.91;5066373;28;20043;-91
2021/12/06 03:29:28;;;;;;;1.60;1.50;;;;;;;3.29;100.00;99625.16;5066330;28;20398;-90
2021/12/06 03:32:31;;;;;;;2.00;1.63;;;;;;;3.18;100.00;99617.16;5060476;28;20047;-90
2021/12/06 03:35:34;;;;;;;5.30;1.85;;;;;;;3.18;100.00;99611.66;5066869;28;20125;-90
2021/12/06 03:38:38;;;;;;;5.68;3.70;;;;;;;3.16;100.00;99594.03;5074851;28;20101;-91
2021/12/06 03:41:41;;;;;;;0.93;0.93;;;;;;;3.24;100.00;99587.16;5074827;28;20052;-91
2021/12/06 03:44:44;;;;;;;3.13;1.00;;;;;;;3.24;100.00;99570.63;5074600;28;20102;-91
2021/12/06 03:47:47;;;;;;;2.22;1.33;;;;;;;3.22;100.00;99573.06;5074290;28;20097;-91
2021/12/06 03:50:50;;;;;;;1.27;0.93;;;;;;;3.27;100.00;99564.28;5074272;28;20039;-90
2021/12/06 03:53:53;;;;;;;4.18;2.08;;;;;;;3.34;100.00;99555.81;5074165;28;20055;-90
2021/12/06 03:56:57;;;;;;;2.38;1.38;;;;;;;3.43;100.00;99558.72;5068454;28;20398;-90
2021/12/06 04:00:02;;;;;;;3.60;2.55;;;;;;;3.57;100.00;99545.34;5053990;28;20093;-90
2021/12/06 04:03:05;;;;;;;8.38;2.83;;;;;;;3.56;100.00;99537.50;5065406;28;20094;-91
2021/12/06 04:06:11;;;;;;;1.23;1.05;;;;;;;3.63;100.00;99529.06;5065547;28;20051;-90
2021/12/06 04:09:14;;;;;;;3.17;2.20;;;;;;;3.67;100.00;99516.75;5053612;28;20107;-90
2021/12/06 04:12:18;;;;;;;6.90;1.77;;;;;;;3.69;100.00;99517.06;5054444;28;20052;-90
2021/12/06 04:15:21;;;;;;;1.40;1.30;;;;;;;3.75;100.00;99503.53;5058842;28;20055;-90
2021/12/06 04:18:24;;;;;;;3.97;1.58;;;;;;;3.68;100.00;99501.00;5078216;28;20051;-91
2021/12/06 04:21:28;;;;;;;3.60;1.65;;;;;;;3.69;100.00;99480.50;5080446;28;20118;-91
2021/12/06 04:24:31;;;;;;;2.88;1.75;;;;;;;3.63;100.00;99477.53;5074366;28;20051;-91
2021/12/06 04:27:34;;;;;;;3.13;2.85;;;;;;;3.72;100.00;99485.16;5063558;28;20132;-91
2021/12/06 04:30:38;;;;;;;9.77;2.55;;;;;;;3.74;100.00;99477.22;5055182;28;20044;-92
2021/12/06 04:33:42;;;;;;;0.70;0.70;;;;;;;3.65;100.00;99463.31;5070214;28;20039;-91
2021/12/06 04:36:46;;;;;;;0.57;0.30;;;;;;;3.76;100.00;99448.03;5052909;28;20143;-91
2021/12/06 04:39:49;;;;;;;2.72;1.13;;;;;;;3.81;100.00;99452.97;5053261;28;20047;-91
2021/12/06 04:42:54;;;;;;;6.30;1.83;;;;;;;3.87;100.00;99452.44;5054037;28;20040;-91
2021/12/06 04:45:57;;;;;;;2.60;1.48;;;;;;;3.85;100.00;99439.88;5052696;28;20052;-91
2021/12/06 04:49:00;;;;;;;5.82;1.30;;;;;;;3.76;100.00;99439.78;5033274;28;20111;-91
2021/12/06 04:52:07;;;;;;;15.50;1.98;;;;;;;3.76;100.00;99433.50;5033436;28;20052;-91
2021/12/06 04:55:16;;;;;;;1.35;1.35;;;;;;;3.70;100.00;99427.00;5041151;28;20048;-92
2021/12/06 04:58:27;;;;;;;1.42;1.33;;;;;;;4.00;100.00;99418.19;5054095;28;20128;-92
2021/12/06 05:01:32;;;;;;;0.88;0.88;;;;;;;4.12;100.00;99405.59;5052911;28;20052;-92
2021/12/06 05:04:38;;;;;;;1.67;1.58;;;;;;;3.97;100.00;99391.50;5053191;28;20098;-92
2021/12/06 05:07:46;;;;;;;1.17;1.05;;;;;;;3.95;100.00;99371.13;5064437;28;20040;-92
2021/12/06 05:10:51;;;;;;;0.93;0.80;;;;;;;3.93;100.00;99357.78;5053448;28;20044;-92
2021/12/06 05:13:56;;;;;;;1.60;1.50;;;;;;;4.04;100.00;99358.22;5052912;28;20052;-91
2021/12/06 05:16:59;;;;;;;3.63;2.05;;;;;;;4.04;100.00;99362.97;5053767;28;20278;-91
2021/12/06 05:20:05;;;;;;;2.50;1.33;;;;;;;4.02;100.00;99360.66;5052585;28;20095;-91
2021/12/06 05:23:10;;;;;;;1.00;1.00;;;;;;;3.98;100.00;99356.47;5052973;28;20516;-91
2021/12/06 05:26:13;;;;;;;2.55;2.08;;;;;;;4.03;100.00;99353.91;5053437;28;20056;-91
2021/12/06 05:29:20;;;;;;;7.13;1.35;;;;;;;4.09;100.00;99343.91;5053284;28;20075;-91
2021/12/06 05:32:26;;;;;;;3.40;1.83;;;;;;;4.11;100.00;99346.97;5053467;28;20237;-90
2021/12/06 05:35:29;;;;;;;1.70;1.60;;;;;;;4.19;100.00;99339.22;5052949;28;20051;-91
2021/12/06 05:38:32;;;;;;;1.52;1.10;;;;;;;4.16;100.00;99332.63;5053091;28;20052;-91
2021/12/06 05:41:37;;;;;;;5.70;1.48;;;;;;;4.15;100.00;99325.59;5065618;28;20052;-88
2021/12/06 05:44:41;;;;;;;2.00;1.50;;;;;;;4.18;100.00;99315.66;5073144;28;20097;-89
2021/12/06 05:47:44;;;;;;;12.77;1.55;;;;;;;4.25;100.00;99305.16;5065439;28;20671;-85
2021/12/06 05:50:48;;;;;;;3.92;1.05;;;;;;;4.24;100.00;99309.13;5053161;28;20142;-89
2021/12/06 05:53:51;;;;;;;2.20;0.73;;;;;;;4.29;100.00;99299.50;5052942;28;20036;-86
2021/12/06 05:56:55;;;;;;;4.57;1.45;;;;;;;4.34;100.00;99294.22;5053405;28;20114;-88
2021/12/06 05:59:58;;;;;;;3.88;2.13;;;;;;;4.43;100.00;99277.75;5055966;28;20103;-90
2021/12/06 06:03:04;;;;;;;5.05;1.42;;;;;;;4.50;100.00;99269.19;5071928;28;20067;-91
2021/12/06 06:06:07;;;;;;;12.57;2.03;;;;;;;4.51;100.00;99273.50;5075039;28;20093;-81
2021/12/06 06:09:10;;;;;;;5.28;1.23;;;;;;;4.46;100.00;99263.06;5059798;28;20048;-81
2021/12/06 06:12:12;;;;;;;1.58;1.08;;;;;;;4.49;100.00;99267.69;5055664;28;20101;-82
2021/12/06 06:15:15;;;;;;;1.33;1.25;;;;;;;4.52;100.00;99275.06;5059398;28;20040;-82
2021/12/06 06:18:19;;;;;;;1.75;0.98;;;;;;;4.61;100.00;99279.88;5074278;28;20047;-82
2021/12/06 06:21:22;;;;;;;9.55;1.50;;;;;;;4.65;100.00;99277.75;5061724;28;20056;-81
2021/12/06 06:24:24;;;;;;;2.10;0.95;;;;;;;4.66;100.00;99275.78;5053588;28;20071;-82
2021/12/06 06:27:27;;;;;;;0.57;0.57;;;;;;;4.57;100.00;99279.97;5053048;28;20046;-83
2021/12/06 06:30:30;;;;;;;8.30;1.58;;;;;;;4.63;100.00;99276.66;5053845;28;20106;-81
2021/12/06 06:33:33;;;;;;;3.53;1.30;;;;;;;4.60;100.00;99262.56;5063260;28;20481;-81
2021/12/06 06:36:36;;;;;;;1.08;0.65;;;;;;;4.70;100.00;99248.84;5033415;28;20048;-81
2021/12/06 06:39:39;;;;;;;4.90;0.63;;;;;;;4.77;100.00;99237.50;5050566;28;20102;-81
2021/12/06 06:42:43;;;;;;;1.75;1.33;;;;;;;4.80;100.00;99231.09;5053210;28;20048;-81
2021/12/06 06:45:45;;;;;;;19.67;1.33;;;;;;;4.83;100.00;99219.19;5045228;28;20751;-81
2021/12/06 06:48:48;;;;;;;2.03;0.75;;;;;;;4.92;100.00;99210.91;5034020;28;20041;-82
2021/12/06 06:51:51;;;;;;;0.60;0.60;;;;;;;4.99;100.00;99203.16;5033836;28;20044;-81
2021/12/06 06:54:55;;;;;;;2.20;0.73;;;;;;;4.99;100.00;99210.66;5033693;28;20047;-81
2021/12/06 06:57:58;;;;;;;2.65;1.27;;;;;;;4.99;100.00;99203.16;5060964;28;20049;-81
2021/12/06 07:01:02;;;;;;;1.48;0.82;;;;;;;4.96;100.00;99195.03;5073593;28;20083;-81
2021/12/06 07:04:05;;;;;;;1.65;0.45;;;;;;;4.92;100.00;99188.84;5073390;28;20047;-81
2021/12/06 07:07:08;;;;;;;1.35;0.63;;;;;;;4.96;100.00;99190.25;5073671;28;20047;-81
2021/12/06 07:10:12;;;;;;;1.85;1.50;;;;;;;5.10;100.00;99183.41;5053415;28;20187;-80
2021/12/06 07:13:15;;;;;;;9.60;2.05;;;;;;;5.15;100.00;99163.50;5064239;28;20055;-81
2021/12/06 07:16:18;;;;;;;2.28;1.10;;;;;;;5.20;100.00;99160.13;5053509;28;20190;-81
2021/12/06 07:19:21;;;;;;;7.20;1.48;;;;;;;5.20;100.00;99155.38;5063435;28;20048;-82
2021/12/06 07:22:24;;;;;;;1.48;1.40;;;;;;;5.17;100.00;99150.78;5053583;28;20513;-81
2021/12/06 07:25:28;;;;;;;0.60;0.55;;;;;;;5.21;100.00;99156.16;5053562;28;20071;-82
2021/12/06 07:28:31;;;;;;;0.75;0.75;;;;;;;5.18;100.00;99144.03;5064278;28;20052;-81
2021/12/06 07:31:34;;;;;;;2.15;1.27;;;;;;;5.20;100.00;99144.34;5052646;28;20052;-80
2021/12/06 07:34:37;;;;;;;3.13;1.23;;;;;;;5.21;100.00;99139.59;5053065;28;20142;-80
2021/12/06 07:37:39;;;;;;;0.50;0.50;;;;;;;5.22;100.00;99136.38;5052611;28;20090;-80
2021/12/06 07:40:42;;;;;;;1.85;0.85;;;;;;;5.22;100.00;99141.13;5053123;28;20087;-80
2021/12/06 07:43:46;;;;;;;5.90;2.58;;;;;;;5.20;100.00;99138.06;5051989;28;20060;-81
2021/12/06 07:46:51;;;;;;;0.63;0.63;;;;;;;5.21;100.00;99139.59;5053789;28;20052;-82
2021/12/06 07:49:54;;;;;;;1.05;0.93;;;;;;;5.24;100.00;99135.94;5063774;28;20052;-82
2021/12/06 07:52:57;;;;;;;7.15;1.50;;;;;;;5.26;100.00;99130.72;5053119;28;20052;-82
2021/12/06 07:56:00;;;;;;;2.13;1.45;;;;;;;5.26;100.00;99136.25;5052730;28;20048;-82
2021/12/06 07:59:04;;;;;;;10.20;1.02;;;;;;;5.27;100.00;99143.28;5052652;28;20132;-85
2021/12/06 08:02:09;;;;;;;0.85;0.57;;;;;;;5.28;100.00;99134.53;5052595;28;20044;-80
2021/12/06 08:05:33;;;;;;;0.50;0.50;;;;;;;5.30;100.00;99134.88;5052852;28;20107;-81
2021/12/06 08:08:38;;;;;;;3.25;0.73;;;;;;;5.37;100.00;99123.53;5047307;28;20552;-81
2021/12/06 08:11:42;;;;;;;0.57;0.43;;;;;;;5.45;100.00;99117.72;5032826;28;20091;-80
2021/12/06 08:14:45;;;;;;;1.27;1.05;;;;;;;5.50;100.00;99108.81;5032428;28;20142;-83
2021/12/06 08:17:47;;;;;;;1.95;0.90;;;;;;;5.50;100.00;99098.53;5032813;28;20530;-83
2021/12/06 08:20:51;;;;;;;2.25;1.00;;;;;;;5.59;100.00;99090.25;5032353;28;20073;-85
2021/12/06 08:23:57;;;;;;;2.45;0.80;;;;;;;5.65;100.00;99079.38;5031729;28;20076;-85
2021/12/06 08:27:00;;;;;;;0.32;0.32;;;;;;;5.65;100.00;99068.31;5044983;28;20128;-85
2021/12/06 08:30:05;;;;;;;1.30;0.98;;;;;;;5.69;100.00;99050.38;5050771;28;20191;-85
2021/12/06 08:33:08;;;;;;;0.10;0.10;;;;;;;5.69;100.00;99042.09;5064335;28;20043;-86
2021/12/06 08:36:12;;;;;;;0.32;0.32;;;;;;;5.70;100.00;99042.81;5053996;28;20118;-87
2021/12/06 08:39:15;;;;;;;0.82;0.82;;;;;;;5.73;100.00;99037.16;5052915;28;20403;-88
2021/12/06 08:42:19;;;;;;;7.15;1.42;;;;;;;5.79;100.00;99034.53;5053328;28;20078;-84
2021/12/06 08:45:23;;;;;;;1.25;1.15;;;;;;;5.86;100.00;99035.03;5063871;28;20091;-84
2021/12/06 08:48:29;;;;;;;2.83;1.50;;;;;;;5.93;100.00;99037.44;5050487;28;20498;-84
2021/12/06 08:51:37;;;;;;;2.53;1.50;;;;;;;5.98;100.00;99036.81;5052708;28;20044;-84
2021/12/06 08:54:40;;;;;;;1.55;0.73;;;;;;;6.05;100.00;99028.22;5063694;28;20083;-85
2021/12/06 08:57:44;;;;;;;2.08;1.60;;;;;;;6.16;100.00;99024.97;5052649;28;20082;-84
2021/12/06 09:00:47;;;;;;;3.25;1.50;;;;;;;6.30;100.00;99015.25;5052790;28;20080;-84
2021/12/06 09:03:51;;;;;;;1.25;0.60;;;;;;;6.32;100.00;99007.25;5053415;28;20048;-87
2021/12/06 09:06:57;;;;;;;4.18;1.20;;;;;;;6.37;100.00;98998.28;5053457;28;20089;-85
2021/12/06 09:10:01;;;;;;;1.10;1.00;;;;;;;6.46;100.00;98993.50;5049769;28;20055;-84
2021/12/06 09:13:05;;;;;;;15.63;1.50;;;;;;;6.57;100.00;98982.69;5051361;28;20048;-83
2021/12/06 09:16:11;;;;;;;0.40;0.40;;;;;;;6.62;100.00;98961.91;5051751;28;20141;-83
2021/12/06 09:19:16;;;;;;;1.10;0.98;;;;;;;6.72;100.00;98960.63;5051811;28;20099;-83
2021/12/06 09:22:20;;;;;;;2.17;0.90;;;;;;;6.73;100.00;98946.31;5113581;22;20052;-84
2021/12/06 09:25:23;;;;;;;2.28;0.73;;;;;;;6.79;100.00;98946.44;5052991;28;20036;-84
2021/12/06 09:28:27;;;;;;;1.83;1.27;;;;;;;6.81;100.00;98921.81;5045970;28;20515;-85
2021/12/06 09:31:29;;;;;;;0.50;0.40;;;;;;;6.81;100.00;98919.06;5052470;28;20040;-84
2021/12/06 09:34:33;;;;;;;2.45;1.55;;;;;;;6.80;100.00;98909.22;5051884;28;20514;-84
2021/12/06 09:37:37;;;;;;;6.28;1.60;;;;;;;6.76;100.00;98900.31;5051944;28;20044;-84
2021/12/06 09:40:43;;;;;;;0.50;0.50;;;;;;;6.75;100.00;98894.06;5050643;28;20044;-84
2021/12/06 09:43:48;;;;;;;5.00;0.77;;;;;;;6.77;100.00;98879.72;5050615;28;20040;-86
2021/12/06 09:46:51;;;;;;;2.03;0.80;;;;;;;6.75;100.00;98882.22;5054084;28;20048;-84
2021/12/06 09:49:54;;;;;;;8.68;2.30;;;;;;;6.73;100.00;98881.91;5050941;28;20514;-84
2021/12/06 09:53:03;;;;;;;1.55;1.10;;;;;;;6.69;100.00;98881.34;5052547;28;20064;-86
2021/12/06 09:56:10;;;;;;;0.80;0.38;;;;;;;6.72;100.00;98872.06;5050385;28;20094;-84
2021/12/06 09:59:17;;;;;;;0.20;0.20;;;;;;;6.70;100.00;98869.03;5050891;28;20048;-84
2021/12/06 10:02:21;;;;;;;0.30;0.30;;;;;;;6.64;100.00;98855.09;5051441;28;20577;-85
2021/12/06 10:05:27;;;;;;;0.10;0.10;;;;;;;6.66;100.00;98840.78;5051649;28;20051;-84
2021/12/06 10:08:33;;;;;;;1.60;0.30;;;;;;;6.71;100.00;98840.13;5050677;28;20064;-85
2021/12/06 10:11:36;;;;;;;1.05;0.68;;;;;;;6.71;100.00;98842.91;5051999;28;20560;-85
2021/12/06 10:14:41;;;;;;;0.20;0.20;;;;;;;6.67;100.00;98836.78;5050322;28;20044;-83
2021/12/06 10:17:44;;;;;;;0.30;0.30;;;;;;;6.63;100.00;98825.88;5050368;28;20077;-84
2021/12/06 10:20:48;;;;;;;0.20;0.10;;;;;;;6.51;100.00;98817.84;5050133;28;20087;-83
2021/12/06 10:23:52;;;;;;;0.22;0.22;;;;;;;6.47;100.00;98820.03;5049936;28;20083;-83
2021/12/06 10:27:10;;;;;;;0.52;0.52;;;;;;;6.49;100.00;98809.25;5050205;28;20048;-85
2021/12/06 10:30:13;;;;;;;0.50;0.50;;;;;;;6.48;100.00;98822.31;5051305;28;20044;-84
2021/12/06 10:33:21;;;;;;;4.35;0.22;;;;;;;6.38;100.00;98814.56;5043316;28;20083;-86
2021/12/06 10:36:26;;;;;;;0.65;0.52;;;;;;;6.34;100.00;98814.00;5030802;28;20076;-86
2021/12/06 10:39:35;;;;;;;2.15;0.38;;;;;;;6.28;100.00;98824.91;5040047;28;20032;-86
2021/12/06 10:42:41;;;;;;;0.60;0.60;;;;;;;6.16;100.00;98811.34;5063233;28;20064;-86
2021/12/06 10:45:50;;;;;;;0.35;0.15;;;;;;;5.94;100.00;98804.13;5066738;28;20119;-85
2021/12/06 10:48:59;;;;;;;0.20;0.20;;;;;;;5.79;100.00;98805.25;5037779;28;20200;-86
2021/12/06 10:52:02;;;;;;;0.25;0.25;;;;;;;5.65;100.00;98809.44;5054746;28;20507;-85
2021/12/06 10:55:06;;;;;;;0.30;0.30;;;;;;;5.51;100.00;98799.09;5055282;28;20047;-88
2021/12/06 10:58:17;;;;;;;0.22;0.22;;;;;;;5.34;100.00;98784.13;5055812;28;20166;-87
2021/12/06 11:01:26;;;;;;;0.60;0.60;;;;;;;5.22;100.00;98782.31;5055596;28;20064;-87
2021/12/06 11:04:30;;;;;;;0.38;0.38;;;;;;;5.25;100.00;98776.66;5055224;28;20653;-86
2021/12/06 11:07:33;;;;;;;1.10;0.57;;;;;;;5.24;100.00;98766.09;5055358;28;20044;-86
2021/12/06 11:10:49;;;;;;;1.63;0.38;;;;;;;5.19;100.00;98747.41;5056055;28;20090;-88
2021/12/06 11:14:02;;;;;;;1.75;1.20;;;;;;;5.10;100.00;98730.88;5066629;28;20128;-88
2021/12/06 11:17:09;;;;;;;0.50;0.50;;;;;;;5.08;100.00;98719.53;5055644;28;20108;-87
2021/12/06 11:20:21;;;;;;;0.95;0.95;;;;;;;5.05;100.00;98703.91;5054559;28;20048;-86
2021/12/06 11:23:24;;;;;;;0.30;0.30;;;;;;;5.05;100.00;98701.13;5055645;28;20098;-88
2021/12/06 11:26:28;;;;;;;3.05;0.82;;;;;;;5.05;100.00;98712.19;5055431;28;20052;-88
2021/12/06 11:29:42;;;;;;;3.95;0.45;;;;;;;5.07;100.00;98718.75;5066478;28;20072;-88
2021/12/06 11:32:48;;;;;;;0.43;0.30;;;;;;;5.10;100.00;98714.31;5042701;28;20092;-88
2021/12/06 11:35:51;;;;;;;0.63;0.63;;;;;;;5.14;100.00;98725.94;5035136;28;20187;-87
2021/12/06 11:39:05;;;;;;;0.10;0.10;;;;;;;5.16;100.00;98726.25;5050237;28;20099;-83
2021/12/06 11:42:09;;;;;;;0.30;0.30;;;;;;;5.11;100.00;98729.66;5054444;28;20517;-85
2021/12/06 11:45:11;;;;;;;0.22;0.22;;;;;;;5.06;100.00;98733.81;5053215;28;20624;-87
2021/12/06 11:48:26;;;;;;;0.65;0.52;;;;;;;5.02;100.00;98735.19;5055397;28;20047;-87
2021/12/06 11:51:29;;;;;;;0.70;0.70;;;;;;;4.98;100.00;98726.31;5065412;28;20083;-89
2021/12/06 11:55:05;;;;;;;0.30;0.30;;;;;;;4.84;100.00;98713.94;5046493;28;20052;-93
2021/12/06 11:58:27;;;;;;;0.88;0.70;;;;;;;4.81;100.00;98701.06;5033436;28;20049;-89
2021/12/06 12:01:37;;;;;;;0.35;0.35;;;;;;;4.76;100.00;98685.19;5033773;28;20060;-90
2021/12/06 12:04:41;;;;;;;0.73;0.70;;;;;;;4.84;100.00;98669.03;5034067;28;20068;-88
2021/12/06 12:08:01;;;;;;;0.45;0.45;;;;;;;4.85;100.00;98676.09;5050737;28;20040;-87
2021/12/06 12:11:04;;;;;;;0.50;0.50;;;;;;;4.88;100.00;98675.16;5052762;28;20575;-88
2021/12/06 12:14:11;;;;;;;0.95;0.50;;;;;;;4.85;100.00;98671.34;5052226;28;20044;-88
2021/12/06 12:17:23;;;;;;;0.10;0.10;;;;;;;4.86;100.00;98661.06;5053026;28;20047;-87
2021/12/06 12:20:27;;;;;;;;;;;;;;;4.87;100.00;98646.84;5064160;28;20070;-87
2021/12/06 12:23:32;;;;;;;0.43;0.43;;;;;;;4.88;100.00;98642.06;5053639;28;20333;-87
2021/12/06 12:40:58;;;;;;;2.20;0.95;;;;;;;4.87;100.00;98593.66;5098123;27;20421;-53
2021/12/06 12:44:07;;;;;;;1.45;0.35;;;;;;;5.01;100.00;98581.91;5069401;28;20430;-53
2021/12/06 12:47:20;;;;;;;1.08;0.75;;;;;;;5.21;100.00;98582.09;5075773;28;20051;-53
2021/12/06 12:50:29;;;;;;;3.33;1.08;;;;;;;5.35;100.00;98581.38;5088200;28;20109;-54
2021/12/06 12:53:54;;;;;;;9.63;1.45;;;;;;;5.57;100.00;98583.81;5089029;28;20051;-58
2021/12/06 13:00:21;;;;;;;3.60;1.17;;;;;;;5.67;100.00;98577.78;5004572;28;20373;-86
2021/12/06 13:03:43;;;;;;;1.17;1.05;;;;;;;5.64;100.00;98569.66;5010451;28;20045;-84
2021/12/06 13:06:51;;;;;;;0.60;0.60;;;;;;;5.82;100.00;98556.47;4998928;28;20085;-85
2021/12/06 13:09:57;;;;;;;1.00;0.68;;;;;;;6.01;100.00;98557.84;5018766;28;20514;-88
2021/12/06 13:13:13;;;;;;;1.25;0.35;;;;;;;6.20;100.00;98552.88;5007357;28;20052;-83
2021/12/06 13:16:34;;;;;;;1.20;1.10;;;;;;;6.29;100.00;98546.47;4996821;28;20578;-80
2021/12/06 13:20:27;;;;;;;2.08;0.75;;;;;;;6.16;100.00;98544.00;5027595;28;20096;-78
2021/12/06 13:23:10;;;;;;;0.45;0.45;;;;;;;6.13;100.00;98549.75;5028825;28;20052;-81
2021/12/06 13:26:13;;;;;;;3.03;0.88;;;;;;;6.03;100.00;98547.06;5027276;28;20129;-80
2021/12/06 13:29:28;;;;;;;2.45;1.00;;;;;;;5.98;100.00;98558.78;4996527;28;20085;-85
2021/12/06 13:32:45;;;;;;;1.02;1.02;;;;;;;5.91;100.00;98537.03;5009254;28;20096;-86
2021/12/06 13:35:52;;;;;;;0.60;0.50;;;;;;;5.98;100.00;98544.19;5019510;28;20518;-82
2021/12/06 13:38:55;;;;;;;3.00;0.85;;;;;;;6.10;100.00;98543.94;5038452;28;20099;-90
2021/12/06 13:42:01;;;;;;;1.63;1.23;;;;;;;6.20;100.00;98527.22;5003963;28;20407;-89
2021/12/06 13:45:14;;;;;;;2.05;0.80;;;;;;;6.28;100.00;98522.84;5015972;28;20143;-90
2021/12/06 13:48:33;;;;;;;1.17;0.90;;;;;;;6.50;100.00;98528.69;5019204;28;20048;-88
2021/12/06 13:51:45;;;;;;;1.48;1.08;;;;;;;6.79;100.00;98512.81;5035371;28;20053;-89
2021/12/06 13:54:49;;;;;;;;;;;;;;;7.00;100.00;98518.34;5023932;28;20053;-89
2021/12/06 13:57:59;;;;;;;0.60;0.60;;;;;;;7.01;100.00;98508.78;5022174;28;19923;-87
2021/12/06 14:01:05;;;;;;;1.05;0.98;;;;;;;7.00;100.00;98504.50;5023267;28;20079;-85
2021/12/06 14:04:09;;;;;;;5.47;0.65;;;;;;;7.15;100.00;98494.13;5023564;28;20049;-87
2021/12/06 14:07:14;;;;;;;2.40;0.63;;;;;;;7.31;100.00;98496.31;5013128;28;20032;-89
2021/12/06 14:10:17;;;;;;;3.55;1.17;;;;;;;7.62;100.00;98502.69;5015270;28;20084;-90
2021/12/06 14:13:20;;;;;;;1.25;1.15;;;;;;;7.64;100.00;98497.44;5011593;28;20044;-87
2021/12/06 14:16:29;;;;;;;7.40;0.98;;;;;;;7.59;100.00;98500.94;5019794;28;20406;-88
2021/12/06 14:19:32;;;;;;;0.55;0.45;;;;;;;7.41;100.00;98492.16;5003214;28;20049;-89
2021/12/06 14:22:36;;;;;;;1.65;0.93;;;;;;;7.29;100.00;98505.13;5016707;28;20041;-89
2021/12/06 14:25:47;;;;;;;0.57;0.30;;;;;;;7.24;100.00;98491.97;5015566;28;20053;-88
2021/12/06 14:28:51;;;;;;;2.65;0.57;;;;;;;7.29;100.00;98491.28;5002783;28;20391;-89
2021/12/06 14:31:56;;;;;;;5.50;0.88;;;;;;;7.21;100.00;98495.69;5014945;28;20199;-87
2021/12/06 14:34:59;;;;;;;5.68;0.88;;;;;;;7.25;100.00;98493.50;5003551;28;20577;-89
2021/12/06 14:38:03;;;;;;;8.52;1.63;;;;;;;7.36;100.00;98499.16;5009705;28;20045;-90
2021/12/06 14:41:07;;;;;;;2.10;0.68;;;;;;;7.36;100.00;98496.38;5003173;28;20048;-86
2021/12/06 14:44:10;;;;;;;2.22;1.45;;;;;;;7.24;100.00;98491.19;5014059;28;20045;-87
2021/12/06 14:47:23;;;;;;;1.70;0.75;;;;;;;7.20;100.00;98496.97;5027575;28;20045;-87
2021/12/06 14:50:35;;;;;;;1.33;0.70;;;;;;;7.14;100.00;98498.91;5022802;28;20509;-90
2021/12/06 14:54:05;;;;;;;1.98;0.65;;;;;;;7.09;100.00;98496.81;5003639;28;20084;-90
2021/12/06 14:57:12;;;;;;;0.63;0.63;;;;;;;7.04;100.00;98500.28;5007139;28;20502;-86
2021/12/06 15:00:24;;;;;;;0.43;0.38;;;;;;;7.03;100.00;98493.22;4983027;28;20117;-88
2021/12/06 15:03:32;;;;;;;0.95;0.63;;;;;;;6.99;100.00;98512.06;4984928;28;20554;-90
2021/12/06 15:06:35;;;;;;;1.58;0.52;;;;;;;7.07;100.00;98504.84;4998512;28;20045;-92
2021/12/06 15:09:40;;;;;;;1.73;0.90;;;;;;;7.00;100.00;98510.78;5009360;28;20045;-91
2021/12/06 15:12:47;;;;;;;0.15;0.10;;;;;;;7.06;100.00;98505.34;5003504;28;20096;-91